createdAt,value
2023-01-25T01:00:42.366Z,0.17
2023-01-25T01:01:14.778Z,0.16
2023-01-25T01:01:46.968Z,0.15
2023-01-25T01:02:21.679Z,0.15
2023-01-25T01:02:53.856Z,0.14
2023-01-25T01:03:26.557Z,0.16
2023-01-25T01:04:01.338Z,0.19
2023-01-25T01:04:33.765Z,0.20
2023-01-25T01:05:08.355Z,0.23
2023-01-25T01:05:45.989Z,0.27
2023-01-25T01:06:18.164Z,0.29
2023-01-25T01:06:51.697Z,0.33
2023-01-25T01:07:28.284Z,0.37
2023-01-25T01:08:00.431Z,0.39
2023-01-25T01:08:34.435Z,0.42
2023-01-25T01:09:08.553Z,0.48
2023-01-25T01:09:43.268Z,0.50
2023-01-25T01:10:15.945Z,0.54
2023-01-25T01:10:48.666Z,0.56
2023-01-25T01:11:20.885Z,0.59
2023-01-25T01:11:56.249Z,0.60
2023-01-25T01:12:28.557Z,0.62
2023-01-25T01:13:00.709Z,0.65
2023-01-25T01:13:36.037Z,0.66
2023-01-25T01:14:08.465Z,0.70
2023-01-25T01:14:43.210Z,0.71
2023-01-25T01:15:15.406Z,0.74
2023-01-25T01:15:50.100Z,0.78
2023-01-25T01:16:23.060Z,0.80
2023-01-25T01:17:00.230Z,0.81
2023-01-25T01:17:32.348Z,0.84
2023-01-25T01:18:04.509Z,0.86
2023-01-25T01:18:40.344Z,0.88
2023-01-25T01:19:13.223Z,0.89
2023-01-25T01:19:45.349Z,0.92
2023-01-25T01:20:20.129Z,0.94
2023-01-25T01:20:53.516Z,0.96
2023-01-25T01:21:27.006Z,0.99
2023-01-25T01:21:59.167Z,1.01
2023-01-25T01:22:37.121Z,1.03
2023-01-25T01:23:09.294Z,1.04
2023-01-25T01:23:41.553Z,1.06
2023-01-25T01:24:18.079Z,1.07
2023-01-25T01:24:50.372Z,1.07
2023-01-25T01:25:23.833Z,1.07
2023-01-25T01:25:58.737Z,1.10
2023-01-25T01:26:30.944Z,1.11
2023-01-25T01:27:03.297Z,1.13
2023-01-25T01:27:38.009Z,1.14
2023-01-25T01:28:10.274Z,1.16
2023-01-25T01:28:43.201Z,1.17
2023-01-25T01:29:18.275Z,1.19
2023-01-25T01:29:50.407Z,1.19
2023-01-25T01:30:23.892Z,1.21
2023-01-25T01:31:03.094Z,1.22
2023-01-25T01:31:41.995Z,1.24
2023-01-25T01:32:36.207Z,1.21
2023-01-25T01:33:09.028Z,1.25
2023-01-25T01:33:43.962Z,1.25
2023-01-25T01:34:16.142Z,1.26
2023-01-25T01:34:48.312Z,1.25
2023-01-25T01:35:22.983Z,1.26
2023-01-25T01:35:55.090Z,1.26
2023-01-25T01:36:29.261Z,1.28
2023-01-25T01:37:03.972Z,1.28
2023-01-25T01:37:36.212Z,1.29
2023-01-25T01:38:08.350Z,1.30
2023-01-25T01:38:43.480Z,1.30
2023-01-25T01:39:16.192Z,1.30
2023-01-25T01:39:50.957Z,1.31
2023-01-25T01:40:25.042Z,1.31
2023-01-25T01:40:57.138Z,1.33
2023-01-25T01:41:32.158Z,1.34
2023-01-25T01:42:04.968Z,1.35
2023-01-25T01:42:59.671Z,1.34
2023-01-25T01:43:35.536Z,1.33
2023-01-25T01:44:16.830Z,1.33
2023-01-25T01:44:56.081Z,1.33
2023-01-25T01:45:50.188Z,1.30
2023-01-25T01:46:37.523Z,1.27
2023-01-25T01:47:15.878Z,1.26
2023-01-25T01:47:48.901Z,1.26
2023-01-25T01:48:33.696Z,1.25
2023-01-25T01:49:11.730Z,1.22
2023-01-25T01:49:50.194Z,1.19
2023-01-25T01:50:28.912Z,1.14
2023-01-25T01:51:05.549Z,1.14
2023-01-25T01:51:44.850Z,1.06
2023-01-25T01:52:31.246Z,1.02
2023-01-25T01:53:03.958Z,0.98
2023-01-25T01:53:36.460Z,0.97
2023-01-25T01:54:19.241Z,0.98
2023-01-25T01:54:56.192Z,0.97
2023-01-25T01:55:28.440Z,0.98
2023-01-25T01:56:06.955Z,0.99
2023-01-25T01:56:46.609Z,1.00
2023-01-25T01:57:24.927Z,1.00
2023-01-25T01:58:00.337Z,1.00
2023-01-25T01:58:33.963Z,1.00
2023-01-25T01:59:10.823Z,1.01
2023-01-25T01:59:48.999Z,0.99
2023-01-25T02:00:24.069Z,0.99
2023-01-25T02:01:00.106Z,0.98
2023-01-25T02:01:35.359Z,0.99
2023-01-25T02:02:08.016Z,0.97
2023-01-25T02:02:44.565Z,1.00
2023-01-25T02:03:18.213Z,1.00
2023-01-25T02:03:51.979Z,1.01
2023-01-25T02:04:27.832Z,0.98
2023-01-25T02:05:05.699Z,0.95
2023-01-25T02:05:46.148Z,0.92
2023-01-25T02:06:30.402Z,0.90
2023-01-25T02:07:11.298Z,0.91
2023-01-25T02:07:47.419Z,0.89
2023-01-25T02:08:23.954Z,0.89
2023-01-25T02:08:57.160Z,0.90
2023-01-25T02:09:34.490Z,0.92
2023-01-25T02:10:09.598Z,0.93
2023-01-25T02:10:44.189Z,0.95
2023-01-25T02:11:19.013Z,0.96
2023-01-25T02:11:53.084Z,0.98
2023-01-25T02:12:26.218Z,0.99
2023-01-25T02:13:01.852Z,1.01
2023-01-25T02:13:36.483Z,1.01
2023-01-25T02:14:09.259Z,1.03
2023-01-25T02:14:51.117Z,1.03
2023-01-25T02:15:29.076Z,1.04
2023-01-25T02:16:01.731Z,1.05
2023-01-25T02:16:39.231Z,1.06
2023-01-25T02:17:12.485Z,1.06
2023-01-25T02:17:44.670Z,1.07
2023-01-25T02:18:21.800Z,1.07
2023-01-25T02:18:55.648Z,1.06
2023-01-25T02:19:46.388Z,1.06
2023-01-25T02:20:26.886Z,1.03
2023-01-25T02:21:04.047Z,1.03
2023-01-25T02:21:44.929Z,1.02
2023-01-25T02:22:23.073Z,1.01
2023-01-25T02:23:04.457Z,1.02
2023-01-25T02:23:47.610Z,1.00
2023-01-25T02:24:24.016Z,0.96
2023-01-25T02:25:08.869Z,0.89
2023-01-25T02:25:41.647Z,0.86
2023-01-25T02:26:15.106Z,0.86
2023-01-25T02:26:49.876Z,0.85
2023-01-25T02:27:22.191Z,0.86
2023-01-25T02:27:59.266Z,0.88
2023-01-25T02:28:40.261Z,0.87
2023-01-25T02:29:13.014Z,0.83
2023-01-25T02:29:45.720Z,0.82
2023-01-25T02:30:20.607Z,0.85
2023-01-25T02:30:52.861Z,0.85
2023-01-25T02:31:25.162Z,0.88
2023-01-25T02:32:03.397Z,0.91
2023-01-25T02:32:38.258Z,0.90
2023-01-25T02:33:10.485Z,0.92
2023-01-25T02:33:43.137Z,0.94
2023-01-25T02:34:18.975Z,0.95
2023-01-25T02:34:51.124Z,0.94
2023-01-25T02:35:36.272Z,0.97
2023-01-25T02:36:22.647Z,0.94
2023-01-25T02:36:54.833Z,0.94
2023-01-25T02:37:27.416Z,0.95
2023-01-25T02:38:02.253Z,0.97
2023-01-25T02:38:37.444Z,1.00
2023-01-25T02:39:13.287Z,0.99
2023-01-25T02:39:48.006Z,1.01
2023-01-25T02:40:22.721Z,1.03
2023-01-25T02:40:59.585Z,1.04
2023-01-25T02:41:38.644Z,1.03
2023-01-25T02:42:10.841Z,1.03
2023-01-25T02:42:45.321Z,1.03
2023-01-25T02:43:21.740Z,1.05
2023-01-25T02:43:54.735Z,1.04
2023-01-25T02:44:29.092Z,1.05
2023-01-25T02:45:05.123Z,1.05
2023-01-25T02:45:37.732Z,1.07
2023-01-25T02:46:16.268Z,1.08
2023-01-25T02:46:52.693Z,1.04
2023-01-25T02:47:25.069Z,1.03
2023-01-25T02:47:57.987Z,1.05
2023-01-25T02:48:32.679Z,1.07
2023-01-25T02:49:06.716Z,1.08
2023-01-25T02:49:39.042Z,1.11
2023-01-25T02:50:16.049Z,1.11
2023-01-25T02:50:48.165Z,1.12
2023-01-25T02:51:20.651Z,1.13
2023-01-25T02:51:58.595Z,1.14
2023-01-25T02:52:30.757Z,1.12
2023-01-25T02:53:03.477Z,1.14
2023-01-25T02:53:35.981Z,1.14
2023-01-25T02:54:12.603Z,1.12
2023-01-25T02:54:45.519Z,1.13
2023-01-25T02:55:17.982Z,1.13
2023-01-25T02:55:56.222Z,1.13
2023-01-25T02:56:30.070Z,1.13
2023-01-25T02:57:05.183Z,1.12
2023-01-25T02:57:45.695Z,1.09
2023-01-25T02:58:20.264Z,1.07
2023-01-25T02:58:55.193Z,1.09
2023-01-25T02:59:27.499Z,1.08
2023-01-25T03:00:06.762Z,1.09
2023-01-25T03:00:38.969Z,1.08
2023-01-25T03:01:11.783Z,1.07
2023-01-25T03:01:48.842Z,1.07
2023-01-25T03:02:21.328Z,1.07
2023-01-25T03:02:53.666Z,1.07
2023-01-25T03:03:25.927Z,1.07
2023-01-25T03:04:01.484Z,1.08
2023-01-25T03:04:34.135Z,1.08
2023-01-25T03:05:07.218Z,1.07
2023-01-25T03:05:39.506Z,1.07
2023-01-25T03:06:14.319Z,1.07
2023-01-25T03:06:48.160Z,1.08
2023-01-25T03:07:20.783Z,1.09
2023-01-25T03:07:55.575Z,1.09
2023-01-25T03:08:28.255Z,1.10
2023-01-25T03:09:01.732Z,1.11
2023-01-25T03:09:36.750Z,1.09
2023-01-25T03:10:10.724Z,1.08
2023-01-25T03:10:43.065Z,1.02
2023-01-25T03:11:20.993Z,0.95
2023-01-25T03:11:53.147Z,0.87
2023-01-25T03:12:27.375Z,0.84
2023-01-25T03:13:02.121Z,0.82
2023-01-25T03:13:35.889Z,0.79
2023-01-25T03:14:08.119Z,0.79
2023-01-25T03:14:44.619Z,0.79
2023-01-25T03:15:17.035Z,0.81
2023-01-25T03:15:49.319Z,0.84
2023-01-25T03:16:24.312Z,0.86
2023-01-25T03:16:56.458Z,0.90
2023-01-25T03:17:31.341Z,0.91
2023-01-25T03:18:06.308Z,0.92
2023-01-25T03:18:39.735Z,0.92
2023-01-25T03:19:12.292Z,0.92
2023-01-25T03:19:46.964Z,0.94
2023-01-25T03:20:19.468Z,0.93
2023-01-25T03:20:52.345Z,0.95
2023-01-25T03:21:27.112Z,0.95
2023-01-25T03:21:59.377Z,0.96
2023-01-25T03:22:32.972Z,0.97
2023-01-25T03:23:05.217Z,0.98
2023-01-25T03:23:41.001Z,0.99
2023-01-25T03:24:14.465Z,0.99
2023-01-25T03:24:51.068Z,0.99
2023-01-25T03:25:26.017Z,1.00
2023-01-25T03:26:06.824Z,1.00
2023-01-25T03:26:56.397Z,1.01
2023-01-25T03:27:38.884Z,0.99
2023-01-25T03:28:15.383Z,1.00
2023-01-25T03:28:47.812Z,0.99
2023-01-25T03:29:19.906Z,1.00
2023-01-25T03:29:56.753Z,1.01
2023-01-25T03:30:32.140Z,1.00
2023-01-25T03:31:05.409Z,1.02
2023-01-25T03:31:40.314Z,1.02
2023-01-25T03:32:12.766Z,1.02
2023-01-25T03:32:45.103Z,1.03
2023-01-25T03:33:25.598Z,1.01
2023-01-25T03:33:58.299Z,1.00
2023-01-25T03:34:36.073Z,0.99
2023-01-25T03:35:11.936Z,0.99
2023-01-25T03:35:44.026Z,1.00
2023-01-25T03:36:16.615Z,0.99
2023-01-25T03:36:51.367Z,1.00
2023-01-25T03:37:23.669Z,0.99
2023-01-25T03:37:55.911Z,0.99
2023-01-25T03:38:31.702Z,1.01
2023-01-25T03:39:04.541Z,1.00
2023-01-25T03:39:40.951Z,0.97
2023-01-25T03:40:16.511Z,0.98
2023-01-25T03:40:52.881Z,0.97
2023-01-25T03:41:25.242Z,0.99
2023-01-25T03:42:00.195Z,1.00
2023-01-25T03:42:35.015Z,0.99
2023-01-25T03:43:08.555Z,1.00
2023-01-25T03:43:42.430Z,0.99
2023-01-25T03:44:17.235Z,1.00
2023-01-25T03:44:51.076Z,1.00
2023-01-25T03:45:23.177Z,1.01
2023-01-25T03:46:00.140Z,1.02
2023-01-25T03:46:32.416Z,1.00
2023-01-25T03:47:04.750Z,1.01
2023-01-25T03:47:37.044Z,1.01
2023-01-25T03:48:12.319Z,1.01
2023-01-25T03:48:44.487Z,1.02
2023-01-25T03:49:16.785Z,1.01
2023-01-25T03:49:51.491Z,1.01
2023-01-25T03:50:24.612Z,1.01
2023-01-25T03:50:58.492Z,0.98
2023-01-25T03:51:34.035Z,0.97
2023-01-25T03:52:07.447Z,0.95
2023-01-25T03:52:45.482Z,0.95
2023-01-25T03:53:27.624Z,0.94
2023-01-25T03:54:00.414Z,0.92
2023-01-25T03:54:33.612Z,0.92
2023-01-25T03:55:10.364Z,0.92
2023-01-25T03:55:46.451Z,0.89
2023-01-25T03:56:20.608Z,0.90
2023-01-25T03:57:11.615Z,0.89
2023-01-25T03:57:56.774Z,0.87
2023-01-25T03:58:29.690Z,0.89
2023-01-25T03:59:05.015Z,0.91
2023-01-25T03:59:38.224Z,0.91
2023-01-25T04:00:13.014Z,0.93
2023-01-25T04:00:52.529Z,0.93
2023-01-25T04:01:24.780Z,0.95
2023-01-25T04:01:57.067Z,0.98
2023-01-25T04:02:31.950Z,0.99
2023-01-25T04:03:04.204Z,1.00
2023-01-25T04:03:39.032Z,1.00
2023-01-25T04:04:11.837Z,1.01
2023-01-25T04:04:46.196Z,1.00
2023-01-25T04:05:26.056Z,1.00
2023-01-25T04:05:59.405Z,1.02
2023-01-25T04:06:32.991Z,1.01
2023-01-25T04:07:08.827Z,1.00
2023-01-25T04:07:42.919Z,1.02
2023-01-25T04:08:15.610Z,1.04
2023-01-25T04:08:51.141Z,1.05
2023-01-25T04:09:24.541Z,1.06
2023-01-25T04:10:00.187Z,1.07
2023-01-25T04:10:34.990Z,1.07
2023-01-25T04:11:10.024Z,1.09
2023-01-25T04:11:42.704Z,1.11
2023-01-25T04:12:22.005Z,1.11
2023-01-25T04:12:54.229Z,1.13
2023-01-25T04:13:26.799Z,1.13
2023-01-25T04:14:01.564Z,1.15
2023-01-25T04:14:44.625Z,1.15
2023-01-25T04:15:23.502Z,1.15
2023-01-25T04:15:59.054Z,1.16
2023-01-25T04:16:53.967Z,1.12
2023-01-25T04:17:45.508Z,1.11
2023-01-25T04:18:24.429Z,1.11
2023-01-25T04:18:59.183Z,1.11
2023-01-25T04:19:32.731Z,1.11
2023-01-25T04:20:08.184Z,1.11
2023-01-25T04:20:47.625Z,1.10
2023-01-25T04:21:19.806Z,1.09
2023-01-25T04:21:51.955Z,1.09
2023-01-25T04:22:24.109Z,1.09
2023-01-25T04:23:01.519Z,1.08
2023-01-25T04:23:40.217Z,1.07
2023-01-25T04:24:12.601Z,1.07
2023-01-25T04:24:48.927Z,1.08
2023-01-25T04:25:21.226Z,1.08
2023-01-25T04:25:59.636Z,1.07
2023-01-25T04:26:34.736Z,1.08
2023-01-25T04:27:08.978Z,1.09
2023-01-25T04:27:51.460Z,1.03
2023-01-25T04:28:26.538Z,1.03
2023-01-25T04:28:59.863Z,1.03
2023-01-25T04:29:40.907Z,1.04
2023-01-25T04:30:19.290Z,1.04
2023-01-25T04:30:55.426Z,1.04
2023-01-25T04:31:30.265Z,1.04
2023-01-25T04:32:06.382Z,1.04
2023-01-25T04:32:38.932Z,1.04
2023-01-25T04:33:23.280Z,1.03
2023-01-25T04:33:58.757Z,1.05
2023-01-25T04:34:30.935Z,1.05
2023-01-25T04:35:03.354Z,1.07
2023-01-25T04:35:38.128Z,1.07
2023-01-25T04:36:11.642Z,1.07
2023-01-25T04:36:43.900Z,1.07
2023-01-25T04:37:18.830Z,1.05
2023-01-25T04:38:05.787Z,0.99
2023-01-25T04:38:44.329Z,0.96
2023-01-25T04:39:19.281Z,0.94
2023-01-25T04:39:52.289Z,0.92
2023-01-25T04:40:25.387Z,0.91
2023-01-25T04:41:00.262Z,0.89
2023-01-25T04:41:32.344Z,0.87
2023-01-25T04:42:04.757Z,0.86
2023-01-25T04:42:37.025Z,0.86
2023-01-25T04:43:16.333Z,0.87
2023-01-25T04:43:49.820Z,0.84
2023-01-25T04:44:21.992Z,0.82
2023-01-25T04:44:56.709Z,0.82
2023-01-25T04:45:29.637Z,0.77
2023-01-25T04:46:02.865Z,0.75
2023-01-25T04:46:39.653Z,0.72
2023-01-25T04:47:12.181Z,0.71
2023-01-25T04:47:44.356Z,0.70
2023-01-25T04:48:19.147Z,0.71
2023-01-25T04:48:59.969Z,0.69
2023-01-25T04:49:32.534Z,0.69
2023-01-25T04:50:08.077Z,0.70
2023-01-25T04:50:41.618Z,0.71
2023-01-25T04:51:17.226Z,0.72
2023-01-25T04:51:49.443Z,0.72
2023-01-25T04:52:21.533Z,0.73
2023-01-25T04:52:54.007Z,0.73
2023-01-25T04:53:29.787Z,0.74
2023-01-25T04:54:05.459Z,0.72
2023-01-25T04:54:39.096Z,0.71
2023-01-25T04:55:16.726Z,0.69
2023-01-25T04:55:49.882Z,0.67
2023-01-25T04:56:27.362Z,0.65
2023-01-25T04:57:01.413Z,0.65
2023-01-25T04:57:34.160Z,0.64
2023-01-25T04:58:11.315Z,0.65
2023-01-25T04:58:46.319Z,0.63
2023-01-25T04:59:21.080Z,0.62
2023-01-25T04:59:53.706Z,0.62
2023-01-25T05:00:29.224Z,0.64
2023-01-25T05:01:07.663Z,0.64
2023-01-25T05:01:39.906Z,0.65
2023-01-25T05:02:12.894Z,0.68
2023-01-25T05:02:47.985Z,0.68
2023-01-25T05:03:20.167Z,0.71
2023-01-25T05:03:54.873Z,0.74
2023-01-25T05:04:38.564Z,0.74
2023-01-25T05:05:11.756Z,0.77
2023-01-25T05:05:49.975Z,0.80
2023-01-25T05:06:27.540Z,0.81
2023-01-25T05:06:59.910Z,0.83
2023-01-25T05:07:35.400Z,0.85
2023-01-25T05:08:08.211Z,0.85
2023-01-25T05:08:40.354Z,0.86
2023-01-25T05:09:15.244Z,0.87
2023-01-25T05:09:47.434Z,0.86
2023-01-25T05:10:19.811Z,0.85
2023-01-25T05:11:14.490Z,0.79
2023-01-25T05:12:11.946Z,0.72
2023-01-25T05:13:09.863Z,0.66
2023-01-25T05:13:42.087Z,0.66
2023-01-25T05:14:30.535Z,0.65
2023-01-25T05:15:09.681Z,0.65
2023-01-25T05:15:42.528Z,0.68
2023-01-25T05:16:17.548Z,0.69
2023-01-25T05:16:52.040Z,0.72
2023-01-25T05:17:24.366Z,0.73
2023-01-25T05:17:59.161Z,0.75
2023-01-25T05:18:47.146Z,0.75
2023-01-25T05:19:23.721Z,0.73
2023-01-25T05:20:05.150Z,0.73
2023-01-25T05:20:37.414Z,0.73
2023-01-25T05:21:29.877Z,0.74
2023-01-25T05:22:07.818Z,0.70
2023-01-25T05:22:48.010Z,0.69
2023-01-25T05:23:23.192Z,0.71
2023-01-25T05:23:55.878Z,0.72
2023-01-25T05:24:31.561Z,0.73
2023-01-25T05:25:30.191Z,0.73
2023-01-25T05:26:17.878Z,0.69
2023-01-25T05:27:03.883Z,0.66
2023-01-25T05:28:11.035Z,0.53
2023-01-25T05:29:03.507Z,0.49
2023-01-25T05:29:50.241Z,0.53
2023-01-25T05:30:23.176Z,0.54
2023-01-25T05:31:06.260Z,0.54
2023-01-25T05:31:42.845Z,0.56
2023-01-25T05:32:17.258Z,0.58
2023-01-25T05:32:50.347Z,0.61
2023-01-25T05:33:25.406Z,0.62
2023-01-25T05:33:58.203Z,0.64
2023-01-25T05:34:30.563Z,0.66
2023-01-25T05:35:06.225Z,0.67
2023-01-25T05:35:38.560Z,0.67
2023-01-25T05:36:10.763Z,0.67
2023-01-25T05:36:44.007Z,0.65
2023-01-25T05:37:20.570Z,0.66
2023-01-25T05:37:57.831Z,0.62
2023-01-25T05:38:30.655Z,0.61
2023-01-25T05:39:08.755Z,0.59
2023-01-25T05:39:41.081Z,0.53
2023-01-25T05:40:13.608Z,0.52
2023-01-25T05:40:48.291Z,0.52
2023-01-25T05:41:20.403Z,0.51
2023-01-25T05:41:53.223Z,0.49
2023-01-25T05:42:25.429Z,0.47
2023-01-25T05:43:01.620Z,0.47
2023-01-25T05:43:35.462Z,0.43
2023-01-25T05:44:10.889Z,0.41
2023-01-25T05:44:56.226Z,0.37
2023-01-25T05:45:30.200Z,0.32
2023-01-25T05:46:03.196Z,0.29
2023-01-25T05:46:36.241Z,0.28
2023-01-25T05:47:14.950Z,0.24
2023-01-25T05:47:52.024Z,0.21
2023-01-25T05:48:24.332Z,0.23
2023-01-25T05:48:59.615Z,0.21
2023-01-25T05:49:33.603Z,0.22
2023-01-25T05:50:09.458Z,0.22
2023-01-25T05:51:03.594Z,0.20
2023-01-25T05:51:38.597Z,0.22
2023-01-25T05:52:13.654Z,0.25
2023-01-25T05:52:48.829Z,0.26
2023-01-25T05:53:25.443Z,0.28
2023-01-25T05:53:58.245Z,0.30
2023-01-25T05:54:33.103Z,0.30
2023-01-25T05:55:10.864Z,0.27
2023-01-25T05:55:44.214Z,0.28
2023-01-25T05:56:22.922Z,0.28
2023-01-25T05:56:55.090Z,0.29
2023-01-25T05:57:31.606Z,0.31
2023-01-25T05:58:05.686Z,0.33
2023-01-25T05:58:38.512Z,0.35
2023-01-25T05:59:14.503Z,0.36
2023-01-25T05:59:46.831Z,0.38
2023-01-25T06:00:26.253Z,0.40
2023-01-25T06:01:02.868Z,0.40
2023-01-25T06:01:45.039Z,0.38
2023-01-25T06:02:19.818Z,0.38
2023-01-25T06:02:52.464Z,0.40
2023-01-25T06:03:34.339Z,0.40
2023-01-25T06:04:07.083Z,0.41
2023-01-25T06:04:41.781Z,0.44
2023-01-25T06:05:15.366Z,0.46
2023-01-25T06:05:48.282Z,0.47
2023-01-25T06:06:24.272Z,0.50
2023-01-25T06:06:57.813Z,0.49
2023-01-25T06:07:29.996Z,0.49
2023-01-25T06:08:04.757Z,0.49
2023-01-25T06:08:47.317Z,0.47
2023-01-25T06:09:19.491Z,0.48
2023-01-25T06:09:54.442Z,0.48
2023-01-25T06:10:26.675Z,0.48
2023-01-25T06:10:59.526Z,0.48
2023-01-25T06:11:34.353Z,0.50
2023-01-25T06:12:06.911Z,0.51
2023-01-25T06:12:40.519Z,0.52
2023-01-25T06:13:12.989Z,0.53
2023-01-25T06:13:48.494Z,0.54
2023-01-25T06:14:20.776Z,0.55
2023-01-25T06:14:55.440Z,0.55
2023-01-25T06:15:30.667Z,0.57
2023-01-25T06:16:22.964Z,0.54
2023-01-25T06:16:55.317Z,0.56
2023-01-25T06:17:59.567Z,0.52
2023-01-25T06:18:46.054Z,0.53
2023-01-25T06:19:20.759Z,0.55
2023-01-25T06:20:13.466Z,0.52
2023-01-25T06:21:09.053Z,0.51
2023-01-25T06:21:41.792Z,0.52
2023-01-25T06:22:13.941Z,0.53
2023-01-25T06:22:52.502Z,0.55
2023-01-25T06:23:24.766Z,0.54
2023-01-25T06:23:59.936Z,0.54
2023-01-25T06:24:32.261Z,0.55
2023-01-25T06:25:08.612Z,0.56
2023-01-25T06:25:43.831Z,0.57
2023-01-25T06:26:16.231Z,0.58
2023-01-25T06:26:48.336Z,0.59
2023-01-25T06:27:22.995Z,0.61
2023-01-25T06:27:55.342Z,0.62
2023-01-25T06:28:32.774Z,0.64
2023-01-25T06:29:05.707Z,0.63
2023-01-25T06:29:40.499Z,0.61
2023-01-25T06:30:13.442Z,0.61
2023-01-25T06:30:48.525Z,0.58
2023-01-25T06:31:23.494Z,0.57
2023-01-25T06:31:55.882Z,0.55
2023-01-25T06:32:32.582Z,0.55
2023-01-25T06:33:07.271Z,0.53
2023-01-25T06:33:39.928Z,0.54
2023-01-25T06:34:12.674Z,0.52
2023-01-25T06:34:47.512Z,0.53
2023-01-25T06:35:25.320Z,0.51
2023-01-25T06:36:00.695Z,0.53
2023-01-25T06:36:35.512Z,0.55
2023-01-25T06:37:07.833Z,0.53
2023-01-25T06:37:39.909Z,0.52
2023-01-25T06:38:14.717Z,0.52
2023-01-25T06:38:49.447Z,0.51
2023-01-25T06:39:24.201Z,0.51
2023-01-25T06:39:56.420Z,0.55
2023-01-25T06:40:29.404Z,0.56
2023-01-25T06:41:05.013Z,0.59
2023-01-25T06:41:37.098Z,0.60
2023-01-25T06:42:09.355Z,0.61
2023-01-25T06:42:45.359Z,0.62
2023-01-25T06:43:17.457Z,0.61
2023-01-25T06:43:50.815Z,0.62
2023-01-25T06:44:25.566Z,0.62
2023-01-25T06:44:57.784Z,0.60
2023-01-25T06:45:29.998Z,0.61
2023-01-25T06:46:10.084Z,0.61
2023-01-25T06:46:42.312Z,0.59
2023-01-25T06:47:17.005Z,0.59
2023-01-25T06:47:50.004Z,0.60
2023-01-25T06:48:24.781Z,0.61
2023-01-25T06:48:56.987Z,0.61
2023-01-25T06:49:31.686Z,0.60
2023-01-25T06:50:04.087Z,0.60
2023-01-25T06:50:36.261Z,0.60
2023-01-25T06:51:13.527Z,0.62
2023-01-25T06:51:45.850Z,0.62
2023-01-25T06:52:18.082Z,0.63
2023-01-25T06:52:55.935Z,0.64
2023-01-25T06:53:29.646Z,0.64
2023-01-25T06:54:06.429Z,0.66
2023-01-25T06:54:38.585Z,0.66
2023-01-25T06:55:14.067Z,0.69
2023-01-25T06:55:48.762Z,0.70
2023-01-25T06:56:22.757Z,0.71
2023-01-25T06:56:57.751Z,0.72
2023-01-25T06:57:29.882Z,0.72
2023-01-25T06:58:02.110Z,0.75
2023-01-25T06:58:37.107Z,0.76
2023-01-25T06:59:09.217Z,0.77
2023-01-25T06:59:41.526Z,0.78
2023-01-25T10:24:43.294Z,-0.47
2023-01-25T10:25:38.882Z,-0.42
2023-01-25T10:26:15.889Z,-0.40
2023-01-25T10:26:56.770Z,-0.36
2023-01-25T10:27:35.213Z,-0.29
2023-01-25T10:28:25.000Z,-0.25
2023-01-25T10:29:04.227Z,-0.20
2023-01-25T10:29:40.296Z,-0.14
2023-01-25T10:30:26.749Z,-0.10
2023-01-25T10:31:06.323Z,-0.05
2023-01-25T10:31:46.700Z,0.00
2023-01-25T10:32:26.669Z,0.05
2023-01-25T10:33:02.695Z,0.09
2023-01-25T10:33:43.491Z,0.13
2023-01-25T10:34:19.338Z,0.18
2023-01-25T10:34:57.139Z,0.21
2023-01-25T10:35:36.744Z,0.26
2023-01-25T10:36:15.569Z,0.25
2023-01-25T10:36:50.792Z,0.28
2023-01-25T10:37:29.613Z,0.32
2023-01-25T10:38:06.007Z,0.36
2023-01-25T10:38:45.489Z,0.37
2023-01-25T10:39:18.396Z,0.38
2023-01-25T10:40:03.476Z,0.40
2023-01-25T10:40:43.224Z,0.41
2023-01-25T10:41:24.289Z,0.42
2023-01-25T10:42:01.427Z,0.43
2023-01-25T10:42:42.724Z,0.45
2023-01-25T10:43:18.875Z,0.45
2023-01-25T10:44:13.832Z,0.44
2023-01-25T10:44:46.091Z,0.32
2023-01-25T10:45:21.213Z,0.29
2023-01-25T10:45:53.437Z,0.26
2023-01-25T10:46:29.353Z,0.27
2023-01-25T10:47:07.558Z,0.26
2023-01-25T10:47:45.277Z,0.26
2023-01-25T10:48:22.587Z,0.26
2023-01-25T10:48:57.774Z,0.27
2023-01-25T10:49:39.909Z,0.30
2023-01-25T10:50:51.232Z,0.28
2023-01-25T10:51:30.721Z,0.28
2023-01-25T10:52:19.937Z,0.31
2023-01-25T10:52:58.558Z,0.32
2023-01-25T10:53:36.914Z,0.34
2023-01-25T10:54:15.684Z,0.35
2023-01-25T10:54:52.595Z,0.38
2023-01-25T10:55:28.546Z,0.39
2023-01-25T10:56:05.672Z,0.42
2023-01-25T10:56:42.411Z,0.42
2023-01-25T10:57:18.840Z,0.44
2023-01-25T10:57:53.565Z,0.47
2023-01-25T10:58:40.395Z,0.49
2023-01-25T10:59:19.190Z,0.54
2023-01-25T10:59:55.941Z,0.58
2023-01-25T11:00:32.128Z,0.60
2023-01-25T11:01:07.232Z,0.62
2023-01-25T11:01:42.094Z,0.62
2023-01-25T11:02:44.249Z,0.61
2023-01-25T11:03:23.846Z,0.61
2023-01-25T11:03:56.658Z,0.61
2023-01-25T11:04:37.076Z,0.62
2023-01-25T11:05:23.921Z,0.57
2023-01-25T11:05:59.842Z,0.57
2023-01-25T11:06:35.225Z,0.59
2023-01-25T11:07:31.027Z,0.58
2023-01-25T11:08:23.997Z,0.56
2023-01-25T11:08:58.735Z,0.53
2023-01-25T11:09:34.111Z,0.51
2023-01-25T11:10:34.000Z,0.50
2023-01-25T11:11:22.606Z,0.47
2023-01-25T11:11:58.801Z,0.43
2023-01-25T11:12:31.094Z,0.43
2023-01-25T11:13:25.304Z,0.44
2023-01-25T11:13:57.713Z,0.44
2023-01-25T11:14:34.663Z,0.46
2023-01-25T11:15:25.406Z,0.49
2023-01-25T11:16:16.973Z,0.48
2023-01-25T11:16:49.552Z,0.49
2023-01-25T11:17:28.078Z,0.54
2023-01-25T11:18:07.646Z,0.57
2023-01-25T11:18:53.529Z,0.61
2023-01-25T11:19:29.264Z,0.63
2023-01-25T11:20:19.746Z,0.66
2023-01-25T11:21:06.316Z,0.67
2023-01-25T11:21:54.780Z,0.67
2023-01-25T11:22:28.797Z,0.67
2023-01-25T11:23:03.568Z,0.67
2023-01-25T11:23:35.902Z,0.67
2023-01-25T11:24:20.746Z,0.69
2023-01-25T11:24:52.847Z,0.68
2023-01-25T11:25:35.152Z,0.68
2023-01-25T11:26:13.769Z,0.68
2023-01-25T11:26:49.191Z,0.68
2023-01-25T11:27:22.864Z,0.67
2023-01-25T11:28:20.246Z,0.66
2023-01-25T11:29:07.830Z,0.63
2023-01-25T11:29:43.001Z,0.63
2023-01-25T11:30:19.101Z,0.64
2023-01-25T11:30:55.631Z,0.63
2023-01-25T11:31:28.237Z,0.63
2023-01-25T11:32:03.842Z,0.65
2023-01-25T11:32:38.356Z,0.65
2023-01-25T11:33:14.920Z,0.65
2023-01-25T11:33:47.365Z,0.67
2023-01-25T11:34:27.359Z,0.69
2023-01-25T11:35:00.179Z,0.67
2023-01-25T11:35:34.625Z,0.68
2023-01-25T11:36:33.972Z,0.69
2023-01-25T11:37:28.223Z,0.68
2023-01-25T11:38:16.264Z,0.69
2023-01-25T11:39:05.518Z,0.70
2023-01-25T11:39:53.137Z,0.70
2023-01-25T11:40:38.364Z,0.70
2023-01-25T11:41:22.913Z,0.69
2023-01-25T11:42:05.155Z,0.70
2023-01-25T11:42:47.729Z,0.72
2023-01-25T11:43:38.458Z,0.74
2023-01-25T11:44:39.587Z,0.73
2023-01-25T11:45:49.737Z,0.73
2023-01-25T11:46:39.737Z,0.74
2023-01-25T11:47:25.215Z,0.75
2023-01-25T11:48:19.382Z,0.77
2023-01-25T11:49:11.496Z,0.78
2023-01-25T11:49:52.336Z,0.79
2023-01-25T11:50:34.179Z,0.79
2023-01-25T11:51:10.835Z,0.80
2023-01-25T11:51:54.843Z,0.80
2023-01-25T11:52:38.051Z,0.81
2023-01-25T11:53:38.060Z,0.81
2023-01-25T11:54:41.732Z,0.78
2023-01-25T11:55:26.335Z,0.76
2023-01-25T11:56:12.687Z,0.77
2023-01-25T11:56:57.949Z,0.77
2023-01-25T11:57:54.343Z,0.75
2023-01-25T11:58:40.724Z,0.75
2023-01-25T12:00:02.837Z,0.73
2023-01-25T12:00:48.717Z,0.70
2023-01-25T12:01:30.497Z,0.69
2023-01-25T12:02:22.630Z,0.67
2023-01-25T12:03:41.386Z,0.61
2023-01-25T12:04:50.876Z,0.55
2023-01-25T12:05:32.743Z,0.55
2023-01-25T12:06:12.964Z,0.55
2023-01-25T12:06:59.287Z,0.55
2023-01-25T12:07:44.439Z,0.56
2023-01-25T12:08:44.956Z,0.54
2023-01-25T12:09:28.982Z,0.53
2023-01-25T12:10:15.558Z,0.53
2023-01-25T12:10:57.920Z,0.53
2023-01-25T12:11:42.869Z,0.55
2023-01-25T12:12:34.295Z,0.55
2023-01-25T12:13:11.818Z,0.56
2023-01-25T12:13:55.172Z,0.59
2023-01-25T12:14:42.424Z,0.61
2023-01-25T12:15:58.416Z,0.62
2023-01-25T12:16:48.294Z,0.64
2023-01-25T12:17:34.815Z,0.67
2023-01-25T12:18:33.168Z,0.71
2023-01-25T12:19:23.968Z,0.74
2023-01-25T12:20:18.388Z,0.75
2023-01-25T12:21:08.436Z,0.75
2023-01-25T12:21:55.315Z,0.77
2023-01-25T12:22:53.408Z,0.80
2023-01-25T12:23:37.265Z,0.83
2023-01-25T12:24:25.682Z,0.83
2023-01-25T12:25:07.856Z,0.81
2023-01-25T12:25:55.680Z,0.79
2023-01-25T12:26:30.187Z,0.77
2023-01-25T12:27:22.183Z,0.77
2023-01-25T12:28:12.097Z,0.74
2023-01-25T12:28:51.468Z,0.74
2023-01-25T12:29:29.856Z,0.73
2023-01-25T12:30:14.244Z,0.72
2023-01-25T12:30:53.798Z,0.71
2023-01-25T12:31:33.431Z,0.72
2023-01-25T12:32:11.875Z,0.72
2023-01-25T12:32:57.304Z,0.74
2023-01-25T12:33:37.315Z,0.74
2023-01-25T12:34:17.907Z,0.76
2023-01-25T12:35:03.829Z,0.78
2023-01-25T12:35:42.429Z,0.78
2023-01-25T12:36:19.915Z,0.78
2023-01-25T12:36:54.713Z,0.78
2023-01-25T12:37:34.963Z,0.80
2023-01-25T12:38:16.600Z,0.78
2023-01-25T12:38:56.070Z,0.80
2023-01-25T12:39:37.406Z,0.80
2023-01-25T12:40:15.798Z,0.79
2023-01-25T12:40:56.137Z,0.81
2023-01-25T12:41:36.179Z,0.81
2023-01-25T12:42:18.829Z,0.80
2023-01-25T12:42:58.255Z,0.82
2023-01-25T12:43:39.511Z,0.82
2023-01-25T12:44:20.086Z,0.81